createdAt,value
2023-03-16T00:00:58.027Z,13.38
2023-03-16T00:03:25.873Z,13.85
2023-03-16T00:05:54.058Z,12.77
2023-03-16T00:08:21.440Z,12.15
2023-03-16T00:10:48.669Z,10.95
2023-03-16T00:13:25.137Z,11.57
2023-03-16T00:15:54.293Z,11.55
2023-03-16T00:18:21.856Z,12.27
2023-03-16T00:20:53.172Z,9.07
2023-03-16T00:23:27.078Z,10.48
2023-03-16T00:25:59.504Z,10.63
2023-03-16T00:28:27.604Z,9.68
2023-03-16T00:30:59.160Z,10.95
2023-03-16T00:33:26.958Z,10.52
2023-03-16T00:36:02.301Z,10.00
2023-03-16T00:38:34.841Z,10.75
2023-03-16T00:41:04.334Z,9.95
2023-03-16T00:43:32.574Z,10.27
2023-03-16T00:46:06.527Z,10.57
2023-03-16T00:48:34.773Z,10.45
2023-03-16T00:51:04.371Z,9.10
2023-03-16T00:53:36.399Z,9.32
2023-03-16T00:58:36.058Z,8.50
2023-03-16T01:01:08.234Z,9.27
2023-03-16T01:03:37.283Z,9.40
2023-03-16T01:06:12.209Z,10.00
2023-03-16T01:08:40.023Z,9.57
2023-03-16T01:11:10.395Z,11.73
2023-03-16T01:13:38.494Z,10.20
2023-03-16T01:16:06.234Z,10.10
2023-03-16T01:18:36.950Z,11.00
2023-03-16T01:21:05.921Z,11.70
2023-03-16T01:23:33.813Z,10.77
2023-03-16T01:26:02.205Z,10.93
2023-03-16T01:28:30.461Z,12.25
2023-03-16T01:31:09.196Z,11.00
2023-03-16T01:33:36.607Z,10.73
2023-03-16T01:36:06.231Z,10.20
2023-03-16T01:38:33.899Z,10.20
2023-03-16T01:41:01.281Z,10.35
2023-03-16T01:43:30.736Z,9.40
2023-03-16T01:46:07.297Z,10.02
2023-03-16T01:49:13.083Z,9.15
2023-03-16T01:51:51.636Z,9.65
2023-03-16T01:54:23.299Z,8.23
2023-03-16T01:57:12.995Z,9.13
2023-03-16T01:59:47.287Z,9.32
2023-03-16T02:02:14.969Z,9.40
2023-03-16T02:05:08.084Z,9.77
2023-03-16T02:07:40.554Z,9.45
2023-03-16T02:10:09.019Z,9.50
2023-03-16T02:12:41.094Z,9.45
2023-03-16T02:15:10.067Z,9.82
2023-03-16T02:17:38.054Z,10.18
2023-03-16T02:20:16.341Z,11.20
2023-03-16T02:22:48.759Z,12.27
2023-03-16T02:25:17.621Z,10.98
2023-03-16T02:28:07.766Z,12.32
2023-03-16T02:30:35.149Z,11.80
2023-03-16T02:33:05.058Z,12.27
2023-03-16T02:35:32.800Z,11.95
2023-03-16T02:38:00.187Z,11.25
2023-03-16T02:40:32.156Z,11.07
2023-03-16T02:43:18.625Z,13.27
2023-03-16T02:45:51.496Z,10.98
2023-03-16T02:48:23.107Z,11.40
2023-03-16T02:50:52.068Z,11.02
2023-03-16T02:53:19.708Z,10.80
2023-03-16T02:55:51.466Z,11.93
2023-03-16T02:58:19.469Z,11.82
2023-03-16T03:00:46.769Z,12.63
2023-03-16T03:03:14.373Z,12.55
2023-03-16T03:05:42.274Z,12.55
2023-03-16T03:08:09.583Z,11.60
2023-03-16T03:10:38.551Z,12.55
2023-03-16T03:13:07.404Z,14.88
2023-03-16T03:15:36.368Z,16.60
2023-03-16T03:18:05.205Z,19.15
2023-03-16T03:20:32.830Z,18.75
2023-03-16T03:23:01.180Z,18.13
2023-03-16T03:25:28.862Z,19.08
2023-03-16T03:27:56.898Z,18.35
2023-03-16T03:30:24.915Z,18.63
2023-03-16T03:32:52.781Z,19.17
2023-03-16T03:35:21.424Z,18.38
2023-03-16T03:37:48.820Z,17.73
2023-03-16T03:40:21.636Z,16.63
2023-03-16T03:42:49.948Z,16.92
2023-03-16T03:45:17.480Z,15.75
2023-03-16T03:47:47.536Z,17.17
2023-03-16T03:50:15.167Z,17.20
2023-03-16T03:52:42.734Z,18.45
2023-03-16T03:55:10.029Z,18.95
2023-03-16T03:57:37.282Z,18.38
2023-03-16T04:00:09.567Z,17.98
2023-03-16T04:02:38.514Z,17.50
2023-03-16T04:05:07.420Z,19.65
2023-03-16T04:07:35.076Z,18.70
2023-03-16T04:10:02.295Z,17.00
2023-03-16T04:12:29.958Z,18.75
2023-03-16T04:14:57.466Z,18.58
2023-03-16T04:17:24.906Z,18.90
2023-03-16T04:19:52.184Z,17.42
2023-03-16T04:22:19.398Z,17.55
2023-03-16T04:24:48.116Z,18.10
2023-03-16T04:27:15.432Z,17.70
2023-03-16T04:29:43.739Z,16.85
2023-03-16T04:32:11.688Z,17.02
2023-03-16T04:34:43.708Z,18.30
2023-03-16T04:37:11.052Z,18.05
2023-03-16T04:39:38.924Z,18.10
2023-03-16T04:42:06.772Z,18.13
2023-03-16T04:44:34.033Z,19.42
2023-03-16T04:47:01.525Z,18.08
2023-03-16T04:49:29.029Z,17.73
2023-03-16T04:51:57.733Z,18.30
2023-03-16T04:54:25.090Z,18.65
2023-03-16T04:56:52.562Z,20.98
2023-03-16T04:59:20.012Z,30.52
2023-03-16T05:01:48.584Z,24.63
2023-03-16T05:04:19.606Z,20.50
2023-03-16T05:06:47.092Z,18.58
2023-03-16T05:09:16.204Z,18.23
2023-03-16T05:11:44.834Z,18.83
2023-03-16T05:14:13.011Z,105.63
2023-03-16T05:16:40.404Z,94.28
2023-03-16T05:19:07.666Z,97.25
2023-03-16T05:21:39.708Z,39.08
2023-03-16T05:24:07.717Z,42.40
2023-03-16T05:26:34.946Z,38.95
2023-03-16T05:29:04.880Z,41.03
2023-03-16T05:31:32.805Z,28.65
2023-03-16T05:34:05.261Z,22.75
2023-03-16T05:36:32.537Z,25.10
2023-03-16T05:38:59.954Z,33.20
2023-03-16T05:41:27.793Z,38.58
2023-03-16T05:43:55.117Z,24.05
2023-03-16T05:46:23.715Z,19.50
2023-03-16T05:48:50.977Z,21.52
2023-03-16T05:51:28.702Z,29.25
2023-03-16T05:53:57.569Z,28.38
2023-03-16T05:56:25.520Z,30.77
2023-03-16T05:58:53.730Z,30.27
2023-03-16T06:01:21.726Z,25.85
2023-03-16T06:03:49.309Z,22.05
2023-03-16T06:06:17.123Z,20.98
2023-03-16T06:08:44.396Z,20.20
2023-03-16T06:11:11.922Z,20.27
2023-03-16T06:13:40.275Z,19.90
2023-03-16T06:16:13.790Z,20.10
2023-03-16T06:18:41.330Z,20.50
2023-03-16T06:21:09.218Z,21.52
2023-03-16T06:23:36.545Z,23.33
2023-03-16T06:26:03.906Z,22.90
2023-03-16T06:28:31.577Z,27.17
2023-03-16T06:31:01.011Z,34.58
2023-03-16T06:33:28.299Z,30.58
2023-03-16T06:35:55.567Z,21.23
2023-03-16T06:38:23.341Z,21.83
2023-03-16T06:40:54.242Z,20.02
2023-03-16T06:43:22.504Z,21.63
2023-03-16T06:45:50.540Z,23.00
2023-03-16T06:48:17.802Z,24.58
2023-03-16T06:50:46.844Z,23.60
2023-03-16T06:53:14.200Z,24.50
2023-03-16T06:55:41.668Z,22.35
2023-03-16T06:58:09.014Z,19.85
2023-03-16T07:00:36.385Z,20.48
2023-03-16T07:03:03.749Z,17.95
2023-03-16T07:05:31.552Z,19.02
2023-03-16T07:08:01.419Z,19.08
2023-03-16T07:10:30.171Z,21.92
2023-03-16T07:12:57.702Z,21.95
2023-03-16T07:15:26.776Z,22.65
2023-03-16T07:17:54.142Z,23.40
2023-03-16T07:20:23.486Z,22.67
2023-03-16T07:22:51.182Z,22.50
2023-03-16T07:25:18.559Z,22.23
2023-03-16T07:27:47.565Z,22.83
2023-03-16T07:30:15.522Z,23.52
2023-03-16T07:32:43.009Z,24.40
2023-03-16T07:35:11.566Z,26.45
2023-03-16T07:37:39.000Z,26.85
2023-03-16T07:40:09.300Z,31.42
2023-03-16T07:42:40.338Z,34.63
2023-03-16T07:45:08.478Z,32.95
2023-03-16T07:47:35.849Z,35.72
2023-03-16T07:50:03.133Z,32.67
2023-03-16T07:52:30.843Z,34.47
2023-03-16T07:54:58.041Z,28.10
2023-03-16T07:57:25.269Z,28.67
2023-03-16T07:59:55.844Z,28.03
2023-03-16T08:02:23.247Z,29.73
2023-03-16T08:04:51.583Z,26.80
2023-03-16T08:07:18.930Z,25.60
2023-03-16T08:09:46.583Z,28.42
2023-03-16T08:12:16.047Z,24.65
2023-03-16T08:14:45.698Z,25.30
2023-03-16T08:17:13.153Z,24.33
2023-03-16T08:19:48.227Z,29.77
2023-03-16T08:22:15.603Z,26.35
2023-03-16T08:24:42.963Z,27.98
2023-03-16T08:27:10.262Z,31.83
2023-03-16T08:29:37.857Z,30.80
2023-03-16T08:32:05.453Z,30.35
2023-03-16T08:34:36.212Z,30.10
2023-03-16T08:37:04.964Z,28.92
2023-03-16T08:39:33.682Z,29.95
2023-03-16T08:42:01.300Z,31.95
2023-03-16T08:44:30.307Z,27.00
2023-03-16T08:46:58.844Z,29.77
2023-03-16T08:49:27.233Z,28.40
2023-03-16T08:51:55.112Z,29.10
2023-03-16T08:54:22.925Z,42.00
2023-03-16T08:56:51.874Z,45.50
2023-03-16T08:59:29.180Z,40.78
2023-03-16T09:01:57.542Z,34.00
2023-03-16T09:04:25.246Z,28.50
2023-03-16T09:07:07.890Z,30.63
2023-03-16T09:09:36.573Z,31.80
2023-03-16T09:12:04.551Z,35.15
2023-03-16T09:14:32.172Z,37.47
2023-03-16T09:16:59.679Z,33.70
2023-03-16T09:19:30.675Z,33.65
2023-03-16T09:22:02.226Z,32.72
2023-03-16T09:24:30.962Z,32.85
2023-03-16T09:26:58.350Z,30.95
2023-03-16T09:29:33.164Z,30.98
2023-03-16T09:32:00.783Z,31.40
2023-03-16T09:34:28.596Z,33.72
2023-03-16T09:36:56.681Z,33.90
2023-03-16T09:39:24.615Z,33.65
2023-03-16T09:41:56.264Z,31.95
2023-03-16T09:44:34.380Z,30.15
2023-03-16T09:47:01.963Z,29.98
2023-03-16T09:49:36.450Z,31.73
2023-03-16T09:52:13.638Z,29.63
2023-03-16T09:54:59.465Z,31.77
2023-03-16T09:57:32.379Z,29.88
2023-03-16T10:00:11.406Z,31.00
2023-03-16T10:02:38.979Z,31.02
2023-03-16T10:05:09.814Z,29.50
2023-03-16T10:08:01.305Z,27.88
2023-03-16T10:10:44.590Z,27.00
2023-03-16T10:13:39.845Z,27.52
2023-03-16T10:16:17.461Z,26.75
2023-03-16T10:18:47.037Z,26.60
2023-03-16T10:21:16.965Z,26.42
2023-03-16T10:23:46.513Z,26.63
2023-03-16T10:26:25.760Z,23.67
2023-03-16T10:28:53.074Z,26.20
2023-03-16T10:31:21.511Z,25.40
2023-03-16T10:33:50.942Z,25.73
2023-03-16T10:36:32.245Z,26.15
2023-03-16T10:41:32.162Z,24.15
2023-03-16T10:44:16.948Z,24.65
2023-03-16T10:46:50.583Z,25.73
2023-03-16T10:49:42.017Z,27.05
2023-03-16T10:52:16.902Z,30.58
2023-03-16T10:54:57.727Z,33.97
2023-03-16T10:57:33.587Z,35.00
2023-03-16T11:00:14.347Z,35.40
2023-03-16T11:02:41.833Z,39.88
2023-03-16T11:05:21.426Z,34.88
2023-03-16T11:07:50.973Z,32.53
2023-03-16T11:10:36.258Z,28.20
2023-03-16T11:13:16.041Z,30.55
2023-03-16T11:15:58.880Z,31.42
2023-03-16T11:18:39.158Z,25.38
2023-03-16T11:21:17.320Z,24.08
2023-03-16T11:23:49.710Z,21.58
2023-03-16T11:26:27.800Z,21.38
2023-03-16T11:29:09.772Z,22.92
2023-03-16T11:31:43.063Z,21.90
2023-03-16T11:34:16.294Z,22.58
2023-03-16T11:36:56.144Z,20.52
2023-03-16T11:39:57.639Z,19.83
2023-03-16T11:42:37.519Z,17.08
2023-03-16T11:45:30.196Z,17.73
2023-03-16T11:48:29.362Z,19.20
2023-03-16T11:51:06.437Z,15.77
2023-03-16T11:54:05.331Z,15.60
2023-03-16T11:56:39.891Z,15.55
2023-03-16T11:59:35.167Z,15.30
2023-03-16T12:02:11.705Z,15.70
2023-03-16T12:05:24.692Z,16.77
2023-03-16T12:08:16.920Z,15.75
2023-03-16T12:11:02.764Z,16.03
2023-03-16T12:13:35.363Z,17.55
2023-03-16T12:16:17.882Z,15.43
2023-03-16T12:18:47.808Z,14.63
2023-03-16T12:21:23.391Z,13.27
2023-03-16T12:23:53.262Z,13.98
2023-03-16T12:26:22.382Z,13.60
2023-03-16T12:28:50.478Z,14.00
2023-03-16T12:31:38.705Z,12.95
2023-03-16T12:34:38.560Z,12.50
2023-03-16T12:37:14.288Z,11.82
2023-03-16T12:40:10.707Z,11.60
2023-03-16T12:42:44.315Z,11.80
2023-03-16T12:45:24.020Z,13.27
2023-03-16T12:48:08.861Z,12.40
2023-03-16T12:50:50.506Z,11.45
2023-03-16T12:53:46.937Z,11.65
2023-03-16T12:56:35.344Z,11.40
2023-03-16T12:59:06.158Z,11.35
2023-03-16T13:01:43.757Z,11.75
2023-03-16T13:04:17.583Z,12.05
2023-03-16T13:06:48.397Z,11.13
2023-03-16T13:09:25.387Z,11.90
2023-03-16T13:11:53.279Z,11.43
2023-03-16T13:14:40.604Z,12.70
2023-03-16T13:17:17.186Z,12.65
2023-03-16T13:20:06.791Z,11.90
2023-03-16T13:22:45.288Z,12.98
2023-03-16T13:25:12.539Z,12.30
2023-03-16T13:27:40.780Z,13.07
2023-03-16T13:30:23.543Z,11.18
2023-03-16T13:33:04.872Z,11.40
2023-03-16T13:35:32.249Z,10.48
2023-03-16T13:38:05.762Z,11.75
2023-03-16T13:40:33.241Z,10.63
2023-03-16T13:43:03.448Z,11.27
2023-03-16T13:45:37.182Z,13.02
2023-03-16T13:48:05.516Z,12.68
2023-03-16T13:50:36.369Z,11.90
2023-03-16T13:53:04.687Z,12.30
2023-03-16T13:55:35.846Z,10.73
2023-03-16T13:58:04.002Z,10.63
2023-03-16T14:00:34.627Z,12.07
2023-03-16T14:03:09.049Z,11.55
2023-03-16T14:05:42.133Z,11.48
2023-03-16T14:08:23.613Z,10.90
2023-03-16T14:10:51.311Z,11.00
2023-03-16T14:13:38.205Z,11.00
2023-03-16T14:16:18.351Z,10.85
2023-03-16T14:19:06.789Z,10.88
2023-03-16T14:21:35.686Z,11.15
2023-03-16T14:24:06.305Z,11.35
2023-03-16T14:26:42.715Z,12.75
2023-03-16T14:29:16.149Z,12.35
2023-03-16T14:31:43.351Z,13.35
2023-03-16T14:34:29.611Z,12.70
2023-03-16T14:37:06.800Z,12.07
2023-03-16T14:39:40.584Z,12.90
2023-03-16T14:42:22.210Z,10.85
2023-03-16T14:44:50.719Z,11.80
2023-03-16T14:47:22.984Z,10.90
2023-03-16T14:49:52.254Z,11.27
2023-03-16T14:52:27.268Z,11.02
2023-03-16T14:54:55.422Z,10.85
2023-03-16T14:57:24.547Z,11.07
2023-03-16T14:59:52.884Z,11.05
2023-03-16T15:02:30.076Z,10.70
2023-03-16T15:04:58.933Z,9.95
2023-03-16T15:07:45.328Z,9.38
2023-03-16T15:10:15.494Z,10.55
2023-03-16T15:12:50.696Z,11.00
2023-03-16T15:15:19.445Z,10.20
2023-03-16T15:17:48.202Z,9.80
2023-03-16T15:20:17.295Z,9.63
2023-03-16T15:22:44.894Z,10.27
2023-03-16T15:25:36.811Z,11.43
2023-03-16T15:28:09.265Z,10.43
2023-03-16T15:30:39.257Z,10.35
2023-03-16T15:33:09.059Z,10.75
2023-03-16T15:35:37.090Z,11.10
2023-03-16T15:38:19.164Z,11.48
2023-03-16T15:40:48.022Z,12.02
2023-03-16T15:43:17.105Z,12.45
2023-03-16T15:45:44.513Z,12.30
2023-03-16T15:48:11.931Z,12.07
2023-03-16T15:50:42.659Z,11.57
2023-03-16T15:53:30.262Z,11.02
2023-03-16T15:56:11.100Z,11.18
2023-03-16T15:58:41.870Z,10.35
2023-03-16T16:01:28.089Z,10.18
2023-03-16T16:03:56.088Z,9.73
2023-03-16T16:06:24.189Z,10.25
2023-03-16T16:08:52.879Z,14.10
2023-03-16T16:11:27.216Z,12.55
2023-03-16T16:13:57.525Z,12.20
2023-03-16T16:16:29.784Z,11.80
2023-03-16T16:18:58.076Z,11.93
2023-03-16T16:21:33.710Z,12.63
2023-03-16T16:24:03.128Z,9.85
2023-03-16T16:26:53.324Z,12.00
2023-03-16T16:29:24.256Z,12.45
2023-03-16T16:31:52.123Z,11.55
2023-03-16T16:34:21.525Z,11.93
2023-03-16T16:36:49.147Z,12.05
2023-03-16T16:39:16.775Z,11.90
2023-03-16T16:44:20.590Z,12.02
2023-03-16T16:46:51.448Z,11.77
2023-03-16T16:49:28.213Z,12.23
2023-03-16T16:51:55.600Z,11.43
2023-03-16T16:54:24.705Z,11.13
2023-03-16T16:56:55.668Z,11.13
2023-03-16T16:59:33.869Z,11.43
2023-03-16T17:02:01.931Z,12.55
2023-03-16T17:04:32.560Z,15.15
2023-03-16T17:07:03.562Z,13.50
2023-03-16T17:09:35.516Z,16.30
2023-03-16T17:12:02.895Z,13.75
2023-03-16T17:14:31.439Z,13.20
2023-03-16T17:17:02.642Z,12.23
2023-03-16T17:19:30.651Z,13.13
2023-03-16T17:21:58.453Z,17.30
2023-03-16T17:24:29.731Z,14.23
2023-03-16T17:26:58.798Z,14.00
2023-03-16T17:29:33.260Z,13.43
2023-03-16T17:32:04.623Z,13.38
2023-03-16T17:34:32.890Z,15.27
2023-03-16T17:37:10.512Z,15.18
2023-03-16T17:39:39.609Z,13.88
2023-03-16T17:42:12.234Z,13.90
2023-03-16T17:44:41.938Z,14.95
2023-03-16T17:47:16.203Z,13.52
2023-03-16T17:49:50.818Z,15.02
2023-03-16T17:52:19.791Z,14.30
2023-03-16T17:54:49.421Z,14.25
2023-03-16T17:57:23.614Z,14.02
2023-03-16T17:59:51.220Z,13.52
2023-03-16T18:02:41.063Z,13.82
2023-03-16T18:05:22.873Z,17.10
2023-03-16T18:07:53.632Z,16.15
2023-03-16T18:10:40.776Z,12.43
2023-03-16T18:13:32.539Z,11.48
2023-03-16T18:16:00.005Z,10.80
2023-03-16T18:18:28.909Z,11.23
2023-03-16T18:21:01.889Z,12.77
2023-03-16T18:23:35.280Z,12.90
2023-03-16T18:26:06.855Z,12.07
2023-03-16T18:28:34.458Z,12.07
2023-03-16T18:31:02.345Z,11.48
2023-03-16T18:33:39.183Z,11.13
2023-03-16T18:36:12.955Z,11.82
2023-03-16T18:38:43.596Z,10.07
2023-03-16T18:41:20.973Z,11.80
2023-03-16T18:43:49.405Z,11.15
2023-03-16T18:46:36.223Z,11.15
2023-03-16T18:49:25.602Z,10.23
2023-03-16T18:51:54.042Z,10.57
2023-03-16T18:54:23.550Z,11.13
2023-03-16T18:56:51.004Z,10.65
2023-03-16T18:59:19.215Z,11.95
2023-03-16T19:01:46.982Z,12.68
2023-03-16T19:04:25.560Z,12.80
2023-03-16T19:06:54.079Z,14.50
2023-03-16T19:09:26.657Z,16.25
2023-03-16T19:11:56.195Z,14.20
2023-03-16T19:14:28.518Z,16.67
2023-03-16T19:16:56.716Z,18.83
2023-03-16T19:19:25.645Z,18.40
2023-03-16T19:22:16.886Z,18.50
2023-03-16T19:24:54.652Z,21.95
2023-03-16T19:27:25.610Z,26.67
2023-03-16T19:29:53.984Z,25.75
2023-03-16T19:32:21.556Z,25.88
2023-03-16T19:34:52.308Z,23.98
2023-03-16T19:37:19.871Z,23.63
2023-03-16T19:39:47.379Z,22.55
2023-03-16T19:42:27.602Z,22.13
2023-03-16T19:44:55.315Z,19.83
2023-03-16T19:47:35.216Z,20.67
2023-03-16T19:50:02.740Z,22.15
2023-03-16T19:52:32.703Z,20.45
2023-03-16T19:54:59.993Z,22.08
2023-03-16T19:57:27.717Z,24.23
2023-03-16T19:59:57.493Z,28.25
2023-03-16T20:02:29.982Z,24.25
2023-03-16T20:04:57.597Z,25.73
2023-03-16T20:07:25.731Z,23.83
2023-03-16T20:09:53.021Z,23.65
2023-03-16T20:12:22.654Z,22.75
2023-03-16T20:14:52.571Z,24.13
2023-03-16T20:17:28.311Z,23.80
2023-03-16T20:19:56.377Z,23.15
2023-03-16T20:22:25.739Z,25.85
2023-03-16T20:24:54.424Z,25.88
2023-03-16T20:27:24.228Z,23.73
2023-03-16T20:29:53.182Z,22.67
2023-03-16T20:32:26.079Z,19.88
2023-03-16T20:34:54.076Z,18.42
2023-03-16T20:37:24.148Z,17.08
2023-03-16T20:39:53.850Z,17.67
2023-03-16T20:42:27.376Z,17.30
2023-03-16T20:44:55.079Z,16.42
2023-03-16T20:47:23.040Z,16.45
2023-03-16T20:49:50.910Z,17.38
2023-03-16T20:52:20.347Z,17.80
2023-03-16T20:54:48.537Z,17.02
2023-03-16T20:57:22.980Z,18.13
2023-03-16T20:59:51.690Z,20.13
2023-03-16T21:02:29.160Z,19.27
2023-03-16T21:04:57.198Z,17.45
2023-03-16T21:07:24.663Z,16.67
2023-03-16T21:09:51.966Z,17.27
2023-03-16T21:12:32.831Z,22.25
2023-03-16T21:15:02.426Z,29.85
2023-03-16T21:17:33.383Z,29.17
2023-03-16T21:20:01.726Z,25.48
2023-03-16T21:22:34.844Z,28.08
2023-03-16T21:25:06.968Z,25.95
2023-03-16T21:27:34.923Z,26.27
2023-03-16T21:30:11.384Z,27.90
2023-03-16T21:32:39.342Z,25.42
2023-03-16T21:35:13.306Z,26.55
2023-03-16T21:37:43.715Z,28.65
2023-03-16T21:40:21.439Z,28.00
2023-03-16T21:42:49.010Z,28.08
2023-03-16T21:45:16.753Z,27.75
2023-03-16T21:47:45.399Z,36.30
2023-03-16T21:50:14.566Z,35.13
2023-03-16T21:52:43.630Z,34.55
2023-03-16T21:55:30.173Z,28.75
2023-03-16T21:57:58.101Z,26.85
2023-03-16T22:00:27.320Z,27.30
2023-03-16T22:02:56.545Z,23.90
2023-03-16T22:05:30.404Z,22.42
2023-03-16T22:07:59.293Z,26.00
2023-03-16T22:10:28.490Z,24.38
2023-03-16T22:12:56.339Z,23.50
2023-03-16T22:15:27.547Z,19.83
2023-03-16T22:17:55.479Z,19.25
2023-03-16T22:20:24.760Z,17.70
2023-03-16T22:22:52.519Z,19.17
2023-03-16T22:25:21.668Z,23.23
2023-03-16T22:27:49.306Z,19.23
2023-03-16T22:30:22.666Z,19.30
2023-03-16T22:32:56.866Z,17.38
2023-03-16T22:35:33.421Z,17.15
2023-03-16T22:38:03.433Z,20.58
2023-03-16T22:40:32.332Z,19.75
2023-03-16T22:43:03.076Z,23.80
2023-03-16T22:45:31.871Z,23.70
2023-03-16T22:48:12.927Z,22.83
2023-03-16T22:50:40.648Z,20.52
2023-03-16T22:53:08.187Z,21.90
2023-03-16T22:55:37.241Z,25.70
2023-03-16T22:58:07.878Z,24.65
2023-03-16T23:00:36.130Z,26.05
2023-03-16T23:03:04.788Z,28.30
2023-03-16T23:05:32.997Z,28.35
2023-03-16T23:08:00.993Z,27.92
2023-03-16T23:10:28.568Z,30.08
2023-03-16T23:12:59.664Z,27.40
2023-03-16T23:15:29.774Z,25.35
2023-03-16T23:17:57.198Z,25.25
2023-03-16T23:20:28.696Z,23.67
2023-03-16T23:22:56.451Z,21.73
2023-03-16T23:25:27.588Z,24.92
2023-03-16T23:27:55.112Z,24.88
2023-03-16T23:30:24.282Z,33.55
2023-03-16T23:32:54.546Z,31.33
2023-03-16T23:35:26.102Z,34.22
2023-03-16T23:37:53.636Z,30.88
2023-03-16T23:40:21.573Z,28.65
2023-03-16T23:42:49.138Z,27.63
2023-03-16T23:45:38.676Z,24.73
2023-03-16T23:48:07.523Z,23.27
2023-03-16T23:50:36.916Z,20.05
2023-03-16T23:53:04.277Z,21.58
2023-03-16T23:55:35.224Z,23.17
2023-03-16T23:58:02.825Z,18.80
